Time;durP1;ratioP1;P1;durP2;ratioP2;P2;SDS_P1;SDS_P2;PMS_P1;PMS_P2;Temp;Humidity;BMP_temperature;BMP_pressure;BME280_temperature;BME280_humidity;BME280_pressure;Samples;Min_cycle;Max_cycle;Signal;HPM_P1;HPM_P2
2022/01/20 00:00:18;;;;;;;30.40;16.50;;;;;;;;;;5124221;27;20837;-74
2022/01/20 00:02:47;;;;;;;26.03;16.60;;;;;;;;;;5137814;27;20441;-74
2022/01/20 00:05:31;;;;;;;31.17;16.37;;;;;;;;;;5138883;27;20434;-74
2022/01/20 00:08:15;;;;;;;25.77;14.77;;;;;;;;;;5136065;27;20448;-74
2022/01/20 00:27:20;;;;;;;23.73;15.40;;;;;;;;;;5138349;27;20500;-74
2022/01/20 00:30:29;;;;;;;27.03;16.13;;;;;;;;;;5138181;27;20926;-74
2022/01/20 00:33:03;;;;;;;25.83;15.23;;;;;;;;;;5138473;27;20445;-74
2022/01/20 00:37:14;;;;;;;22.33;14.27;;;;;;;;;;5137722;27;20448;-74
2022/01/20 00:38:20;;;;;;;26.43;14.67;;;;;;;;;;5138571;27;20456;-74
2022/01/20 00:40:48;;;;;;;26.50;14.13;;;;;;;;;;5138726;27;20438;-74
2022/01/20 00:43:16;;;;;;;19.70;12.17;;;;;;;;;;5138469;27;20940;-74
2022/01/20 00:45:46;;;;;;;21.00;12.03;;;;;;;;;;5143793;27;20525;-74
2022/01/20 00:48:18;;;;;;;23.23;12.30;;;;;;;;;;5148983;27;20441;-74
2022/01/20 00:50:46;;;;;;;22.67;13.77;;;;;;;;;;5138068;28;20572;-74
2022/01/20 00:53:15;;;;;;;22.03;12.87;;;;;;;;;;5138713;28;20452;-74
2022/01/20 00:55:44;;;;;;;30.37;18.33;;;;;;;;;;5140856;27;20459;-74
2022/01/20 00:58:13;;;;;;;26.27;14.63;;;;;;;;;;5138671;28;20498;-74
2022/01/20 01:00:42;;;;;;;26.13;13.97;;;;;;;;;;5138320;28;20438;-74
2022/01/20 01:03:10;;;;;;;24.80;13.87;;;;;;;;;;5138353;28;20851;-74
2022/01/20 01:05:49;;;;;;;25.77;13.80;;;;;;;;;;5138195;28;20453;-74
2022/01/20 01:08:17;;;;;;;30.03;14.13;;;;;;;;;;5138248;27;20804;-73
2022/01/20 01:11:11;;;;;;;25.63;15.20;;;;;;;;;;5141797;27;20477;-74
2022/01/20 01:20:13;;;;;;;28.60;15.77;;;;;;;;;;5142435;27;20460;-74
2022/01/20 01:22:41;;;;;;;32.67;17.50;;;;;;;;;;5142131;27;20442;-74
2022/01/20 01:25:09;;;;;;;27.83;16.03;;;;;;;;;;5162508;27;20445;-74
2022/01/20 01:27:40;;;;;;;26.27;16.03;;;;;;;;;;5162967;27;20465;-74
2022/01/20 01:30:19;;;;;;;29.13;15.43;;;;;;;;;;5162906;27;20559;-75
2022/01/20 01:32:52;;;;;;;25.33;16.20;;;;;;;;;;5162597;27;20927;-74
2022/01/20 01:35:22;;;;;;;31.27;17.67;;;;;;;;;;5163014;27;20444;-74
2022/01/20 01:40:41;;;;;;;25.87;15.33;;;;;;;;;;5141824;27;20834;-74
2022/01/20 01:43:17;;;;;;;32.00;16.03;;;;;;;;;;5141858;27;20516;-74
2022/01/20 01:45:46;;;;;;;24.37;15.57;;;;;;;;;;5154857;27;20505;-74
2022/01/20 01:48:15;;;;;;;32.87;15.73;;;;;;;;;;5162662;27;20448;-74
2022/01/20 01:50:43;;;;;;;26.03;15.07;;;;;;;;;;5162321;27;20494;-74
2022/01/20 01:53:11;;;;;;;26.63;15.27;;;;;;;;;;5162742;27;20444;-74
2022/01/20 01:55:39;;;;;;;23.80;14.30;;;;;;;;;;5155804;27;20449;-74
2022/01/20 01:58:08;;;;;;;25.13;15.67;;;;;;;;;;5162654;27;20447;-74
2022/01/20 02:00:36;;;;;;;24.13;14.43;;;;;;;;;;5162086;27;20468;-74
2022/01/20 02:03:05;;;;;;;19.20;12.57;;;;;;;;;;5162139;27;21011;-74
2022/01/20 02:05:40;;;;;;;26.27;13.27;;;;;;;;;;5161998;27;20432;-74
2022/01/20 02:19:26;;;;;;;20.77;11.40;;;;;;;;;;5112958;27;20538;-74
2022/01/20 02:22:01;;;;;;;20.20;11.47;;;;;;;;;;5140473;27;20445;-74
2022/01/20 02:24:30;;;;;;;14.17;8.27;;;;;;;;;;5141303;27;20437;-74
2022/01/20 02:26:59;;;;;;;11.20;7.40;;;;;;;;;;5141135;27;20500;-74
2022/01/20 02:29:27;;;;;;;10.60;6.33;;;;;;;;;;5140647;27;20442;-74
2022/01/20 02:31:55;;;;;;;11.37;7.37;;;;;;;;;;5141128;27;20517;-74
2022/01/20 02:34:24;;;;;;;14.33;7.70;;;;;;;;;;5140767;27;20995;-74
2022/01/20 02:36:52;;;;;;;13.27;7.97;;;;;;;;;;5140426;27;20821;-74
2022/01/20 02:39:44;;;;;;;15.77;8.47;;;;;;;;;;5157381;27;20959;-74
2022/01/20 02:45:03;;;;;;;10.90;7.57;;;;;;;;;;5161872;27;20459;-74
2022/01/20 02:47:32;;;;;;;11.30;7.47;;;;;;;;;;5161201;27;20548;-73
2022/01/20 02:50:00;;;;;;;12.03;6.73;;;;;;;;;;5161298;27;20619;-74
2022/01/20 02:52:28;;;;;;;11.07;6.70;;;;;;;;;;5161351;27;20447;-74
2022/01/20 02:54:58;;;;;;;12.37;7.20;;;;;;;;;;5160066;27;20429;-74
2022/01/20 02:57:26;;;;;;;11.70;7.50;;;;;;;;;;5146105;27;20552;-74
2022/01/20 02:59:54;;;;;;;10.67;6.67;;;;;;;;;;5160898;27;20995;-74
2022/01/20 03:02:22;;;;;;;11.53;7.20;;;;;;;;;;5161112;27;20447;-74
2022/01/20 03:04:51;;;;;;;10.77;7.13;;;;;;;;;;5161201;27;20496;-74
2022/01/20 03:07:19;;;;;;;9.33;6.70;;;;;;;;;;5161043;27;20544;-75
2022/01/20 03:09:47;;;;;;;9.47;6.57;;;;;;;;;;5161151;27;20441;-74
2022/01/20 03:12:16;;;;;;;11.63;6.93;;;;;;;;;;5161099;27;20473;-74
2022/01/20 03:14:44;;;;;;;11.90;7.50;;;;;;;;;;5145745;27;20434;-74
2022/01/20 03:17:14;;;;;;;13.07;8.07;;;;;;;;;;5140018;27;20833;-74
2022/01/20 03:19:42;;;;;;;18.50;10.67;;;;;;;;;;5139835;27;20444;-74
2022/01/20 03:22:10;;;;;;;21.20;12.47;;;;;;;;;;5140500;27;20442;-75
2022/01/20 03:24:38;;;;;;;30.67;15.50;;;;;;;;;;5142692;27;20430;-74
2022/01/20 03:27:06;;;;;;;29.73;17.03;;;;;;;;;;5160903;27;20478;-74
2022/01/20 03:29:36;;;;;;;36.17;18.87;;;;;;;;;;5160376;27;20448;-74
2022/01/20 03:32:04;;;;;;;34.77;20.33;;;;;;;;;;5159582;27;20483;-74
2022/01/20 03:34:32;;;;;;;35.83;17.87;;;;;;;;;;5160290;27;20425;-74
2022/01/20 03:37:03;;;;;;;34.33;19.37;;;;;;;;;;5152520;27;20972;-74
2022/01/20 03:39:32;;;;;;;34.27;19.03;;;;;;;;;;5139787;27;20448;-74
2022/01/20 03:42:00;;;;;;;33.03;19.90;;;;;;;;;;5139603;27;20441;-74
2022/01/20 03:44:28;;;;;;;32.73;18.53;;;;;;;;;;5139007;27;20445;-74
2022/01/20 03:47:00;;;;;;;32.77;19.37;;;;;;;;;;5139552;27;20497;-74
2022/01/20 03:49:36;;;;;;;35.03;20.40;;;;;;;;;;5125799;27;20479;-74
2022/01/20 03:52:04;;;;;;;30.80;17.67;;;;;;;;;;5139485;27;20537;-74
2022/01/20 03:54:32;;;;;;;34.90;19.27;;;;;;;;;;5139138;27;20993;-74
2022/01/20 03:57:01;;;;;;;36.97;19.67;;;;;;;;;;5141802;27;20465;-75
2022/01/20 03:59:29;;;;;;;38.13;19.00;;;;;;;;;;5139136;27;20446;-74
2022/01/20 04:01:58;;;;;;;33.27;18.93;;;;;;;;;;5138956;27;20442;-74
2022/01/20 04:04:26;;;;;;;35.57;18.10;;;;;;;;;;5135383;27;20457;-74
2022/01/20 04:06:54;;;;;;;32.40;19.00;;;;;;;;;;5137776;27;20470;-74
2022/01/20 04:09:22;;;;;;;31.00;17.70;;;;;;;;;;5138164;27;20452;-74
2022/01/20 04:11:51;;;;;;;32.20;17.63;;;;;;;;;;5138402;27;20481;-74
2022/01/20 04:14:20;;;;;;;32.20;17.43;;;;;;;;;;5140881;27;20434;-74
2022/01/20 04:17:01;;;;;;;32.83;18.23;;;;;;;;;;5159708;27;20540;-74
2022/01/20 04:19:30;;;;;;;29.03;18.03;;;;;;;;;;5147285;27;20460;-74
2022/01/20 04:21:59;;;;;;;31.10;16.20;;;;;;;;;;5138811;27;20985;-74
2022/01/20 04:24:27;;;;;;;36.43;17.40;;;;;;;;;;5144600;27;20455;-74
2022/01/20 04:26:56;;;;;;;28.73;19.47;;;;;;;;;;5159657;27;20525;-74
2022/01/20 04:29:23;;;;;;;32.80;19.30;;;;;;;;;;5159135;27;20540;-74
2022/01/20 04:31:51;;;;;;;31.03;17.80;;;;;;;;;;5158967;27;20537;-74
2022/01/20 04:34:20;;;;;;;31.27;17.70;;;;;;;;;;5159323;27;20500;-74
2022/01/20 04:36:51;;;;;;;37.43;20.00;;;;;;;;;;5159464;27;20482;-74
2022/01/20 04:39:22;;;;;;;32.13;17.57;;;;;;;;;;5159549;27;20455;-74
2022/01/20 04:41:52;;;;;;;33.97;18.40;;;;;;;;;;5159269;27;20433;-74
2022/01/20 04:44:32;;;;;;;28.53;16.97;;;;;;;;;;5158936;27;20444;-74
2022/01/20 04:47:11;;;;;;;30.30;16.90;;;;;;;;;;5159136;27;20469;-74
2022/01/20 04:57:56;;;;;;;29.90;17.37;;;;;;;;;;5146625;27;20446;-74
2022/01/20 05:00:24;;;;;;;30.77;17.73;;;;;;;;;;5158986;27;20440;-74
2022/01/20 05:02:52;;;;;;;35.33;18.33;;;;;;;;;;5159104;27;20816;-74
2022/01/20 05:05:20;;;;;;;24.83;16.20;;;;;;;;;;5159051;27;20828;-74
2022/01/20 05:07:50;;;;;;;28.57;16.47;;;;;;;;;;5158864;27;21017;-74
2022/01/20 05:10:18;;;;;;;35.83;16.93;;;;;;;;;;5158961;27;20451;-73
2022/01/20 05:13:12;;;;;;;30.33;17.27;;;;;;;;;;5157998;27;20483;-73
2022/01/20 05:15:40;;;;;;;29.17;17.53;;;;;;;;;;5135574;27;20801;-74
2022/01/20 05:18:09;;;;;;;30.33;16.50;;;;;;;;;;5137538;28;20452;-73
2022/01/20 05:20:37;;;;;;;32.23;16.83;;;;;;;;;;5139266;27;20433;-74
2022/01/20 05:23:06;;;;;;;29.80;17.40;;;;;;;;;;5137601;28;20442;-74
2022/01/20 05:25:34;;;;;;;30.83;16.27;;;;;;;;;;5137392;27;20430;-74
2022/01/20 05:28:02;;;;;;;25.83;17.60;;;;;;;;;;5139656;27;20445;-73
2022/01/20 05:30:30;;;;;;;33.37;18.20;;;;;;;;;;5140181;27;20422;-74
2022/01/20 05:32:59;;;;;;;32.93;19.57;;;;;;;;;;5138126;27;20474;-73
2022/01/20 05:35:27;;;;;;;34.97;19.27;;;;;;;;;;5137344;28;20461;-74
2022/01/20 05:37:56;;;;;;;32.90;19.83;;;;;;;;;;5135110;27;20458;-73
2022/01/20 05:40:25;;;;;;;33.90;19.10;;;;;;;;;;5139296;27;20824;-74
2022/01/20 05:42:54;;;;;;;32.40;17.10;;;;;;;;;;5137147;27;20430;-73
2022/01/20 05:45:23;;;;;;;35.40;18.37;;;;;;;;;;5138853;27;20438;-73
2022/01/20 05:48:07;;;;;;;30.23;17.77;;;;;;;;;;5137900;27;20494;-74
2022/01/20 05:50:35;;;;;;;32.03;17.20;;;;;;;;;;5136425;28;20485;-74
2022/01/20 05:53:04;;;;;;;33.00;18.97;;;;;;;;;;5138194;27;20482;-74
2022/01/20 05:55:34;;;;;;;24.63;18.00;;;;;;;;;;5137164;27;20438;-73
2022/01/20 05:58:04;;;;;;;34.73;17.77;;;;;;;;;;5140758;27;20520;-73
2022/01/20 06:00:32;;;;;;;32.60;17.20;;;;;;;;;;5140982;27;20430;-74
2022/01/20 06:05:45;;;;;;;26.20;16.50;;;;;;;;;;5138868;27;20845;-74
2022/01/20 06:08:14;;;;;;;28.50;17.03;;;;;;;;;;5141539;27;20441;-74
2022/01/20 06:10:43;;;;;;;32.17;17.83;;;;;;;;;;5142458;27;20429;-73
2022/01/20 06:13:11;;;;;;;32.57;15.47;;;;;;;;;;5138363;27;20823;-73
2022/01/20 06:15:39;;;;;;;29.40;16.90;;;;;;;;;;5137729;27;20444;-73
2022/01/20 06:18:07;;;;;;;27.43;16.50;;;;;;;;;;5140999;27;20448;-75
2022/01/20 06:20:35;;;;;;;27.53;16.10;;;;;;;;;;5141371;27;20521;-73
2022/01/20 06:23:05;;;;;;;25.00;15.40;;;;;;;;;;5141041;27;20815;-73
2022/01/20 06:25:33;;;;;;;25.03;15.40;;;;;;;;;;5140718;27;20444;-73
2022/01/20 06:28:03;;;;;;;24.63;14.73;;;;;;;;;;5141295;27;20452;-73
2022/01/20 06:30:32;;;;;;;27.27;15.57;;;;;;;;;;5141246;27;20505;-73
2022/01/20 06:33:00;;;;;;;24.57;14.67;;;;;;;;;;5140967;27;20477;-73
2022/01/20 06:35:28;;;;;;;24.33;15.43;;;;;;;;;;5152224;27;20433;-74
2022/01/20 06:37:56;;;;;;;24.07;15.37;;;;;;;;;;5161373;27;21038;-76
2022/01/20 06:40:24;;;;;;;23.53;14.50;;;;;;;;;;5161272;27;20441;-74
2022/01/20 06:42:52;;;;;;;26.90;15.90;;;;;;;;;;5161464;27;20441;-75
2022/01/20 06:45:23;;;;;;;25.03;14.80;;;;;;;;;;5161556;27;20437;-75
2022/01/20 06:47:51;;;;;;;24.20;15.50;;;;;;;;;;5161238;27;20521;-74
2022/01/20 06:50:19;;;;;;;22.57;12.77;;;;;;;;;;5161197;27;20985;-74
2022/01/20 06:52:47;;;;;;;23.20;14.47;;;;;;;;;;5161233;27;20481;-74
2022/01/20 06:55:15;;;;;;;22.87;12.77;;;;;;;;;;5157221;27;20954;-75
2022/01/20 06:57:43;;;;;;;21.37;13.10;;;;;;;;;;5135080;27;20473;-73
2022/01/20 07:00:13;;;;;;;19.77;11.90;;;;;;;;;;5140019;27;20526;-73
2022/01/20 07:02:43;;;;;;;21.97;13.20;;;;;;;;;;5145596;27;20440;-73
2022/01/20 07:05:11;;;;;;;19.47;12.60;;;;;;;;;;5144221;27;20442;-73
2022/01/20 07:07:39;;;;;;;18.63;11.60;;;;;;;;;;5139825;27;20469;-73
2022/01/20 07:10:09;;;;;;;22.97;12.50;;;;;;;;;;5140077;27;20438;-73
2022/01/20 07:12:37;;;;;;;20.50;12.13;;;;;;;;;;5140045;27;20486;-74
2022/01/20 07:15:10;;;;;;;18.60;11.57;;;;;;;;;;5158934;27;20444;-74
2022/01/20 07:17:38;;;;;;;18.47;11.83;;;;;;;;;;5140645;27;20971;-74
2022/01/20 07:20:08;;;;;;;20.63;11.90;;;;;;;;;;5139831;27;20461;-74
2022/01/20 07:22:36;;;;;;;23.13;12.70;;;;;;;;;;5139671;27;20510;-74
2022/01/20 07:25:05;;;;;;;19.70;11.13;;;;;;;;;;5156923;27;20444;-74
2022/01/20 07:27:33;;;;;;;17.30;11.37;;;;;;;;;;5160011;27;20805;-74
2022/01/20 07:30:21;;;;;;;18.37;11.00;;;;;;;;;;5159855;27;20432;-74
2022/01/20 07:32:49;;;;;;;21.53;10.87;;;;;;;;;;5160189;27;20478;-74
2022/01/20 07:35:18;;;;;;;16.77;10.87;;;;;;;;;;5160031;27;20936;-78
2022/01/20 07:37:46;;;;;;;16.93;10.30;;;;;;;;;;5151053;27;20462;-75
2022/01/20 07:40:15;;;;;;;17.50;10.47;;;;;;;;;;5147455;27;20429;-75
2022/01/20 07:42:43;;;;;;;19.87;10.83;;;;;;;;;;5147252;27;20482;-75
2022/01/20 07:45:11;;;;;;;17.77;10.90;;;;;;;;;;5147065;27;20433;-75
2022/01/20 07:47:39;;;;;;;15.20;10.00;;;;;;;;;;5144501;27;20461;-75
2022/01/20 07:50:07;;;;;;;13.37;8.83;;;;;;;;;;5146186;27;20560;-75
2022/01/20 07:52:37;;;;;;;16.97;9.90;;;;;;;;;;5145307;27;20433;-74
2022/01/20 07:55:05;;;;;;;18.03;9.10;;;;;;;;;;5146379;27;20437;-76
2022/01/20 07:57:33;;;;;;;17.33;10.00;;;;;;;;;;5147236;27;20540;-76
2022/01/20 08:00:01;;;;;;;17.63;8.50;;;;;;;;;;5145177;27;20440;-75
2022/01/20 08:02:29;;;;;;;14.63;8.80;;;;;;;;;;5147734;27;20438;-77
2022/01/20 08:04:57;;;;;;;17.60;9.00;;;;;;;;;;5144066;27;20849;-75
2022/01/20 08:07:25;;;;;;;16.27;8.77;;;;;;;;;;5148973;27;21041;-76
2022/01/20 08:09:58;;;;;;;15.30;8.83;;;;;;;;;;5143210;27;20473;-78
2022/01/20 08:12:27;;;;;;;13.67;7.90;;;;;;;;;;5140980;27;20446;-78
2022/01/20 08:14:56;;;;;;;11.93;7.47;;;;;;;;;;5138414;27;20524;-78
2022/01/20 08:17:24;;;;;;;12.43;7.97;;;;;;;;;;5137958;27;20483;-78
2022/01/20 08:19:52;;;;;;;12.80;7.97;;;;;;;;;;5138506;27;20464;-78
2022/01/20 08:22:20;;;;;;;10.30;7.23;;;;;;;;;;5138686;27;20438;-78
2022/01/20 08:25:06;;;;;;;10.17;7.07;;;;;;;;;;5150093;27;20512;-76
2022/01/20 08:27:34;;;;;;;11.03;6.83;;;;;;;;;;5159260;27;20596;-77
2022/01/20 08:30:02;;;;;;;13.10;7.80;;;;;;;;;;5159219;27;20441;-75
2022/01/20 08:32:30;;;;;;;13.50;7.50;;;;;;;;;;5159102;27;20441;-78
2022/01/20 08:34:59;;;;;;;11.80;6.27;;;;;;;;;;5159019;27;20485;-75
2022/01/20 08:37:27;;;;;;;10.47;6.60;;;;;;;;;;5145742;27;20545;-76
2022/01/20 08:39:55;;;;;;;8.43;6.33;;;;;;;;;;5147693;27;20503;-77
2022/01/20 08:42:24;;;;;;;12.77;6.37;;;;;;;;;;5150993;27;20510;-77
2022/01/20 08:44:52;;;;;;;12.70;6.43;;;;;;;;;;5136811;27;20442;-78
2022/01/20 08:47:21;;;;;;;10.83;6.57;;;;;;;;;;5137956;28;20469;-73
2022/01/20 08:49:49;;;;;;;11.53;6.00;;;;;;;;;;5137714;28;20552;-74
2022/01/20 08:52:17;;;;;;;7.93;6.00;;;;;;;;;;5138029;28;20456;-74
2022/01/20 08:54:47;;;;;;;8.37;5.97;;;;;;;;;;5138261;28;20477;-74
2022/01/20 08:57:15;;;;;;;13.27;7.33;;;;;;;;;;5140341;27;20547;-74
2022/01/20 08:59:45;;;;;;;13.07;7.60;;;;;;;;;;5158499;27;20455;-74
2022/01/20 09:02:13;;;;;;;9.57;6.90;;;;;;;;;;5158847;27;20437;-74
2022/01/20 09:04:42;;;;;;;11.87;8.17;;;;;;;;;;5158684;27;20437;-74
2022/01/20 09:07:09;;;;;;;12.03;7.03;;;;;;;;;;5158809;27;20509;-74
2022/01/20 09:09:42;;;;;;;12.20;8.17;;;;;;;;;;5158767;27;20451;-74
2022/01/20 09:15:27;;;;;;;12.90;8.43;;;;;;;;;;5158854;27;20524;-74
2022/01/20 09:17:54;;;;;;;11.00;8.13;;;;;;;;;;5137617;28;20542;-74
2022/01/20 09:20:22;;;;;;;11.90;7.90;;;;;;;;;;5138286;28;20462;-74
2022/01/20 09:22:51;;;;;;;9.80;6.83;;;;;;;;;;5137915;28;20438;-74
2022/01/20 09:25:19;;;;;;;11.00;7.37;;;;;;;;;;5138092;28;20521;-74
2022/01/20 09:27:47;;;;;;;9.73;6.67;;;;;;;;;;5137679;28;20545;-73
2022/01/20 09:30:19;;;;;;;13.23;6.70;;;;;;;;;;5138871;27;20437;-73
2022/01/20 09:32:57;;;;;;;8.07;6.60;;;;;;;;;;5141828;27;20528;-73
2022/01/20 09:35:26;;;;;;;7.37;5.73;;;;;;;;;;5141838;27;20481;-74
2022/01/20 09:37:54;;;;;;;7.77;5.33;;;;;;;;;;5141361;27;20549;-73
2022/01/20 09:40:22;;;;;;;7.87;5.53;;;;;;;;;;5141876;27;20516;-73
2022/01/20 09:42:50;;;;;;;9.17;6.57;;;;;;;;;;5141894;27;20462;-74
2022/01/20 09:45:19;;;;;;;6.27;5.47;;;;;;;;;;5141575;27;20448;-73
2022/01/20 09:47:47;;;;;;;8.93;5.70;;;;;;;;;;5141021;27;20470;-73
2022/01/20 09:50:19;;;;;;;7.87;5.10;;;;;;;;;;5141339;27;20501;-73
2022/01/20 09:52:47;;;;;;;9.30;5.97;;;;;;;;;;5141795;27;20437;-73
2022/01/20 09:55:16;;;;;;;9.30;5.33;;;;;;;;;;5141720;27;20484;-73
2022/01/20 09:57:44;;;;;;;7.60;5.77;;;;;;;;;;5142206;27;20976;-74
2022/01/20 10:00:13;;;;;;;8.50;5.83;;;;;;;;;;5141266;27;20441;-73
2022/01/20 10:02:52;;;;;;;8.23;6.27;;;;;;;;;;5141083;27;20438;-73
2022/01/20 10:05:31;;;;;;;7.17;5.70;;;;;;;;;;5141294;27;20444;-73
2022/01/20 10:08:03;;;;;;;9.80;6.30;;;;;;;;;;5141451;27;20437;-73
2022/01/20 10:10:45;;;;;;;9.97;6.53;;;;;;;;;;5141194;27;20442;-73
2022/01/20 10:13:14;;;;;;;9.37;6.23;;;;;;;;;;5140989;27;20517;-73
2022/01/20 10:15:43;;;;;;;9.00;6.70;;;;;;;;;;5159971;27;20540;-73
2022/01/20 10:18:13;;;;;;;12.33;7.87;;;;;;;;;;5160539;27;20472;-73
2022/01/20 10:20:52;;;;;;;8.43;6.37;;;;;;;;;;5140954;27;20532;-73
2022/01/20 10:23:29;;;;;;;10.10;6.93;;;;;;;;;;5142284;27;20443;-73
2022/01/20 10:26:07;;;;;;;9.57;6.63;;;;;;;;;;5161783;27;20467;-73
2022/01/20 10:28:48;;;;;;;11.00;7.07;;;;;;;;;;5161438;27;20520;-73
2022/01/20 10:31:19;;;;;;;10.93;6.97;;;;;;;;;;5140039;27;20898;-73
2022/01/20 10:33:48;;;;;;;10.20;6.47;;;;;;;;;;5136344;27;20446;-73
2022/01/20 10:36:16;;;;;;;10.90;6.23;;;;;;;;;;5139483;27;20482;-73
2022/01/20 10:38:51;;;;;;;9.50;6.53;;;;;;;;;;5140091;27;20459;-73
2022/01/20 10:41:32;;;;;;;10.80;6.03;;;;;;;;;;5140271;27;20449;-73
2022/01/20 10:44:01;;;;;;;11.47;6.50;;;;;;;;;;5140586;27;20441;-73
2022/01/20 10:46:29;;;;;;;7.67;5.97;;;;;;;;;;5140436;27;20461;-73
2022/01/20 10:49:01;;;;;;;8.90;5.67;;;;;;;;;;5140037;27;20448;-72
2022/01/20 10:51:29;;;;;;;10.00;5.80;;;;;;;;;;5140224;27;21009;-73
2022/01/20 10:53:59;;;;;;;9.40;6.23;;;;;;;;;;5140209;27;20444;-73
2022/01/20 10:56:27;;;;;;;9.67;6.77;;;;;;;;;;5139799;27;20482;-73
2022/01/20 10:58:55;;;;;;;11.70;6.50;;;;;;;;;;5139915;27;20929;-74
2022/01/20 11:01:23;;;;;;;10.53;6.80;;;;;;;;;;5139187;27;20441;-73
2022/01/20 11:03:51;;;;;;;9.80;6.27;;;;;;;;;;5138112;27;20937;-73
2022/01/20 11:06:20;;;;;;;11.67;7.43;;;;;;;;;;5137994;27;20462;-73
2022/01/20 11:08:48;;;;;;;11.47;6.93;;;;;;;;;;5137962;27;20437;-73
2022/01/20 11:11:16;;;;;;;10.50;7.07;;;;;;;;;;5138155;27;20510;-75
2022/01/20 11:13:44;;;;;;;13.17;6.13;;;;;;;;;;5140790;27;20437;-75
2022/01/20 11:16:13;;;;;;;9.23;7.33;;;;;;;;;;5145887;27;20488;-75
2022/01/20 11:18:42;;;;;;;13.50;8.33;;;;;;;;;;5140065;27;20458;-77
2022/01/20 11:21:10;;;;;;;9.10;6.53;;;;;;;;;;5131653;27;20445;-76
2022/01/20 11:23:42;;;;;;;11.67;8.67;;;;;;;;;;5145212;27;20501;-76
2022/01/20 11:26:10;;;;;;;12.70;7.67;;;;;;;;;;5160435;27;20886;-75
2022/01/20 11:28:38;;;;;;;12.73;8.10;;;;;;;;;;5160683;27;20443;-76
2022/01/20 11:31:08;;;;;;;10.67;7.17;;;;;;;;;;5160183;27;20818;-74
2022/01/20 11:33:37;;;;;;;11.77;7.60;;;;;;;;;;5160003;27;20498;-75
2022/01/20 11:36:06;;;;;;;12.40;7.90;;;;;;;;;;5160085;27;20489;-76
2022/01/20 11:38:39;;;;;;;13.13;8.30;;;;;;;;;;5160405;27;20441;-75
2022/01/20 11:41:08;;;;;;;10.10;7.30;;;;;;;;;;5160296;27;20527;-73
2022/01/20 11:43:38;;;;;;;12.50;8.40;;;;;;;;;;5143319;27;20448;-75
2022/01/20 11:46:11;;;;;;;10.57;7.10;;;;;;;;;;5139595;27;20485;-75
2022/01/20 11:48:50;;;;;;;11.83;7.83;;;;;;;;;;5139521;27;20463;-74
2022/01/20 11:51:18;;;;;;;11.17;7.20;;;;;;;;;;5139966;27;20434;-74
2022/01/20 11:53:55;;;;;;;12.80;8.27;;;;;;;;;;5139314;27;20532;-74
2022/01/20 11:56:31;;;;;;;12.77;7.47;;;;;;;;;;5148128;27;20492;-74
2022/01/20 11:59:00;;;;;;;13.10;7.27;;;;;;;;;;5159521;27;20432;-75
2022/01/20 12:01:30;;;;;;;11.00;7.90;;;;;;;;;;5159946;27;20513;-74
2022/01/20 12:03:59;;;;;;;16.17;7.27;;;;;;;;;;5160954;27;20439;-75
2022/01/20 12:06:37;;;;;;;14.93;7.87;;;;;;;;;;5159760;27;20499;-75
2022/01/20 12:09:06;;;;;;;11.43;7.80;;;;;;;;;;5156961;27;20883;-76
2022/01/20 12:11:37;;;;;;;13.27;8.80;;;;;;;;;;5138620;27;20548;-75
2022/01/20 12:14:06;;;;;;;13.67;8.60;;;;;;;;;;5138128;27;21013;-75
2022/01/20 12:16:35;;;;;;;13.93;8.93;;;;;;;;;;5139007;27;20525;-75
2022/01/20 12:19:04;;;;;;;13.50;8.40;;;;;;;;;;5138142;27;21019;-75
2022/01/20 12:21:32;;;;;;;12.23;8.90;;;;;;;;;;5138507;27;20900;-75
2022/01/20 12:24:00;;;;;;;13.13;8.33;;;;;;;;;;5143278;27;20448;-76
2022/01/20 12:26:33;;;;;;;14.47;9.73;;;;;;;;;;5158946;27;20973;-75
2022/01/20 12:29:03;;;;;;;12.57;8.20;;;;;;;;;;5135716;27;20492;-75
2022/01/20 12:31:32;;;;;;;12.60;7.90;;;;;;;;;;5138616;27;20509;-75
2022/01/20 12:34:00;;;;;;;11.57;7.43;;;;;;;;;;5130887;27;20438;-75
2022/01/20 12:36:28;;;;;;;10.73;7.20;;;;;;;;;;5138524;27;20477;-75
2022/01/20 12:38:56;;;;;;;11.53;7.23;;;;;;;;;;5138573;27;20444;-75
2022/01/20 12:41:25;;;;;;;8.83;6.10;;;;;;;;;;5139845;27;20434;-75
2022/01/20 12:43:58;;;;;;;9.37;6.27;;;;;;;;;;5147542;27;20433;-75
2022/01/20 12:46:31;;;;;;;7.53;4.37;;;;;;;;;;5138095;27;20541;-75
2022/01/20 12:49:01;;;;;;;6.60;4.00;;;;;;;;;;5137904;27;20507;-75
2022/01/20 12:51:34;;;;;;;7.33;4.37;;;;;;;;;;5138366;28;20528;-76
2022/01/20 12:54:04;;;;;;;8.67;4.13;;;;;;;;;;5137849;28;20456;-75
2022/01/20 12:56:34;;;;;;;4.10;2.93;;;;;;;;;;5137983;28;20844;-74
2022/01/20 12:59:02;;;;;;;6.70;4.20;;;;;;;;;;5138090;28;20521;-74
2022/01/20 13:01:41;;;;;;;5.97;4.67;;;;;;;;;;5138242;28;20816;-75
2022/01/20 13:04:10;;;;;;;5.93;4.20;;;;;;;;;;5138925;27;20462;-75
2022/01/20 13:06:41;;;;;;;6.00;3.73;;;;;;;;;;5142587;27;20469;-76
2022/01/20 13:09:11;;;;;;;4.57;3.63;;;;;;;;;;5129189;27;20456;-76
2022/01/20 13:11:41;;;;;;;4.63;4.13;;;;;;;;;;5141888;27;20872;-76
2022/01/20 13:14:11;;;;;;;4.67;4.17;;;;;;;;;;5150417;27;20440;-76
2022/01/20 13:16:50;;;;;;;6.87;3.70;;;;;;;;;;5162711;27;20476;-76
2022/01/20 13:19:19;;;;;;;5.70;3.97;;;;;;;;;;5151930;27;20898;-77
2022/01/20 13:21:52;;;;;;;5.00;3.67;;;;;;;;;;5141977;27;20495;-76
2022/01/20 13:24:25;;;;;;;5.63;4.40;;;;;;;;;;5154597;27;20447;-75
2022/01/20 13:26:54;;;;;;;6.00;4.03;;;;;;;;;;5162859;27;20461;-76
2022/01/20 13:29:23;;;;;;;6.43;4.43;;;;;;;;;;5162284;27;20931;-75
2022/01/20 13:31:52;;;;;;;3.50;3.20;;;;;;;;;;5162415;27;20527;-75
2022/01/20 13:34:20;;;;;;;5.57;3.80;;;;;;;;;;5162646;27;20452;-76
2022/01/20 13:36:52;;;;;;;5.30;4.07;;;;;;;;;;5152743;27;20500;-76
2022/01/20 13:39:34;;;;;;;4.20;3.70;;;;;;;;;;5149636;27;20445;-76
2022/01/20 13:42:08;;;;;;;6.20;3.80;;;;;;;;;;5148521;27;20436;-76
2022/01/20 13:47:27;;;;;;;5.83;4.67;;;;;;;;;;5141706;27;20494;-76
2022/01/20 13:49:55;;;;;;;6.40;4.70;;;;;;;;;;5141161;27;21055;-78
2022/01/20 13:52:24;;;;;;;6.10;4.60;;;;;;;;;;5141814;27;20477;-76
2022/01/20 13:54:53;;;;;;;5.20;4.67;;;;;;;;;;5141291;27;20867;-76
2022/01/20 13:57:38;;;;;;;10.03;5.37;;;;;;;;;;5141159;27;20481;-77
2022/01/20 14:00:12;;;;;;;10.30;5.30;;;;;;;;;;5141069;27;20533;-76
2022/01/20 14:02:47;;;;;;;8.63;5.13;;;;;;;;;;5141019;27;20936;-75
2022/01/20 14:05:16;;;;;;;9.17;6.47;;;;;;;;;;5146652;27;20464;-75
2022/01/20 14:07:44;;;;;;;7.47;5.83;;;;;;;;;;5149337;27;20864;-75
2022/01/20 14:10:12;;;;;;;7.33;5.20;;;;;;;;;;5150366;27;20441;-75
2022/01/20 14:12:40;;;;;;;9.77;6.03;;;;;;;;;;5147596;27;20808;-75
2022/01/20 14:15:08;;;;;;;8.10;5.37;;;;;;;;;;5149217;27;20438;-75
2022/01/20 14:17:38;;;;;;;7.07;5.23;;;;;;;;;;5147000;27;20508;-79
2022/01/20 14:20:11;;;;;;;7.20;4.80;;;;;;;;;;5152206;27;20448;-75
2022/01/20 14:22:39;;;;;;;8.43;4.80;;;;;;;;;;5148628;27;20440;-75
2022/01/20 14:25:10;;;;;;;9.10;5.17;;;;;;;;;;5148087;27;20425;-75
2022/01/20 14:27:39;;;;;;;8.80;5.40;;;;;;;;;;5148732;27;20478;-75
2022/01/20 14:30:08;;;;;;;15.27;6.27;;;;;;;;;;5147195;27;20537;-75
2022/01/20 14:32:37;;;;;;;7.63;5.40;;;;;;;;;;5149053;27;20820;-75
2022/01/20 14:35:05;;;;;;;8.20;5.70;;;;;;;;;;5144112;27;20529;-75
2022/01/20 14:37:37;;;;;;;8.73;5.37;;;;;;;;;;5140394;27;20577;-76
2022/01/20 14:40:07;;;;;;;8.73;5.17;;;;;;;;;;5159046;27;20436;-76
2022/01/20 14:42:35;;;;;;;6.53;5.30;;;;;;;;;;5156513;27;20941;-75
2022/01/20 14:45:04;;;;;;;8.20;4.90;;;;;;;;;;5140035;27;20512;-75
2022/01/20 14:47:33;;;;;;;8.90;5.20;;;;;;;;;;5140379;27;20462;-75
2022/01/20 14:50:01;;;;;;;10.03;6.13;;;;;;;;;;5140175;27;20505;-75
2022/01/20 14:52:29;;;;;;;7.87;5.73;;;;;;;;;;5140750;27;20442;-75
2022/01/20 14:55:00;;;;;;;11.87;5.43;;;;;;;;;;5140049;27;20448;-74
2022/01/20 14:57:28;;;;;;;7.77;5.10;;;;;;;;;;5140142;27;20508;-74
2022/01/20 15:00:00;;;;;;;6.53;5.13;;;;;;;;;;5139704;27;20813;-74
2022/01/20 15:02:28;;;;;;;8.23;5.30;;;;;;;;;;5140325;27;20477;-74
2022/01/20 15:04:56;;;;;;;8.70;4.83;;;;;;;;;;5144642;27;20441;-74
2022/01/20 15:07:24;;;;;;;11.90;5.90;;;;;;;;;;5139965;27;20556;-74
2022/01/20 15:09:52;;;;;;;10.17;6.13;;;;;;;;;;5140180;27;20447;-74
2022/01/20 15:12:22;;;;;;;9.50;5.67;;;;;;;;;;5140097;27;20446;-75
2022/01/20 15:14:50;;;;;;;11.37;5.90;;;;;;;;;;5139434;27;20809;-75
2022/01/20 15:17:18;;;;;;;12.47;6.30;;;;;;;;;;5139421;27;21044;-74
2022/01/20 15:19:47;;;;;;;7.43;5.40;;;;;;;;;;5139549;27;21017;-74
2022/01/20 15:22:16;;;;;;;13.30;5.40;;;;;;;;;;5150200;27;20551;-74
2022/01/20 15:24:43;;;;;;;11.23;6.07;;;;;;;;;;5154463;27;20433;-74
2022/01/20 15:27:12;;;;;;;8.67;5.00;;;;;;;;;;5160564;27;20544;-74
2022/01/20 15:29:41;;;;;;;10.43;5.40;;;;;;;;;;5160188;27;20447;-74
2022/01/20 15:32:29;;;;;;;7.13;5.87;;;;;;;;;;5154475;27;20207;-74
2022/01/20 15:35:02;;;;;;;10.07;5.73;;;;;;;;;;5121878;27;20798;-74
2022/01/20 15:37:30;;;;;;;14.50;6.10;;;;;;;;;;5139231;27;20489;-74
2022/01/20 15:39:58;;;;;;;10.17;5.10;;;;;;;;;;5139551;27;20444;-74
2022/01/20 15:42:26;;;;;;;8.93;5.40;;;;;;;;;;5139460;27;20441;-74